Flugplatz Achmer (EDXA)

Hier findest Du alle Informationen zum Flugplatz Achmer (EDXA).

Informationen für Piloten zum Flugplatz Achmer

Hier findest Du alle relevanten Informationen, die Du als Pilot benötigst, um Achmer anzufliegen.

Flugplatz: Achmer ICAO-Code: EDXA
Frequenz Turm: 123,050 Mhz GAFOR Gebiet: 9
Frequenz Ground: 123,050 Mhz Mogas: nein
Platzrunde: N 1000 ft Landegebühr: -
Platzhöhe: - Sunrise: 07:20 Uhr UTC
Pisten: 07/25 - 940 m x 30 m, GRAS Sunset: 15:18 Uhr UTC

Flugwetter am Flugplatz Achmer

Die METAR Information stammen aus EDDG (31.15 km entfernt).

METAR Code:
2022/11/10 18:50
EDDG 101850Z AUTO 20005KT 170V230 CAVOK 11/07 Q1026 NOSIG

Temperatur: 3,9 °C Niederschlag: - Wind: 6,1 kt (max.: 13,7 kt in Böen)
Temperatur (min.): 3,0 °C Luftdruck: 1016 hPa Windrichtung: 239 °
Temperatur (max.): 4,9 °C Luftfeuchtigkeit: 92 % Bewölkung: 8/8

Flugschulen am Flugplatz Achmer

Am Flugplatz Achmer gibt es leider keine Flugschule.

Benachbarte Flugplätze und Flugschulen

Es gibt 12 weitere Flugplätze in einem Umkreis von 50 km um den Flugplatz Achmer.

Jetzt anmelden

Passwort vergessen

Umfrage Archiv

Sendet Ihr ADS-B und/oder FLARM?

Ja
84.6 %
Nein
15.4 %
Stimmen: 254 | Diskussion
Anzeige: Roland Aircraft
Statistik Alle Mitglieder

Aktuell sind 49 Besucher online, davon 1 Mitglied und 48 Gäste.


Mitglieder online:
Dr. Speed 

Anzeige: ULPower Aero Engines Anzeige: EasyVFR